createdAt,value
2019-02-20T00:00:23.988Z,99151.45
2019-02-20T00:02:56.286Z,99153.76
2019-02-20T00:05:26.814Z,99155.27
2019-02-20T00:07:57.870Z,99154.66
2019-02-20T00:10:28.156Z,99158.56
2019-02-20T00:12:59.034Z,99152.77
2019-02-20T00:15:29.353Z,99161.21
2019-02-20T00:17:59.876Z,99162.67
2019-02-20T00:20:30.521Z,99159.50
2019-02-20T00:23:01.034Z,99163.84
2019-02-20T00:25:32.088Z,99165.48
2019-02-20T00:28:02.594Z,99164.34
2019-02-20T00:30:33.112Z,99165.41
2019-02-20T00:33:03.337Z,99166.97
2019-02-20T00:35:34.274Z,99174.21
2019-02-20T00:38:05.027Z,99166.38
2019-02-20T00:40:35.985Z,99169.58
2019-02-20T00:43:06.213Z,99164.04
2019-02-20T00:45:54.151Z,99167.84
2019-02-20T00:48:42.280Z,99171.84
2019-02-20T00:51:31.804Z,99174.16
2019-02-20T00:54:03.847Z,99170.95
2019-02-20T00:56:34.470Z,99172.11
2019-02-20T00:59:05.085Z,99173.55
2019-02-20T01:01:35.909Z,99175.39
2019-02-20T01:04:06.953Z,99175.39
2019-02-20T01:06:37.950Z,99173.59
2019-02-20T01:09:08.661Z,99176.36
2019-02-20T01:11:39.023Z,99181.64
2019-02-20T01:14:09.766Z,99177.64
2019-02-20T01:16:40.638Z,99173.73
2019-02-20T01:19:11.255Z,99172.66
2019-02-20T01:21:41.888Z,99175.12
2019-02-20T01:24:12.826Z,99175.34
2019-02-20T01:26:43.615Z,99177.77
2019-02-20T01:29:14.200Z,99179.67
2019-02-20T01:31:44.915Z,99175.38
2019-02-20T01:34:15.960Z,99178.06
2019-02-20T01:36:46.559Z,99168.02
2019-02-20T01:39:18.150Z,99171.70
2019-02-20T01:41:49.392Z,99171.92
2019-02-20T01:44:20.457Z,99170.03
2019-02-20T01:46:51.164Z,99166.54
2019-02-20T01:49:21.801Z,99166.19
2019-02-20T01:51:52.293Z,99166.02
2019-02-20T01:54:23.222Z,99163.11
2019-02-20T01:56:53.801Z,99162.68
2019-02-20T01:59:25.352Z,99158.84
2019-02-20T02:01:55.912Z,99164.81
2019-02-20T02:04:26.265Z,99163.11
2019-02-20T02:06:56.813Z,99163.80
2019-02-20T02:09:27.785Z,99161.20
2019-02-20T02:11:58.337Z,99153.96
2019-02-20T02:14:28.955Z,99158.04
2019-02-20T02:16:59.576Z,99160.33
2019-02-20T02:19:30.874Z,99157.00
2019-02-20T02:22:01.414Z,99164.21
2019-02-20T02:24:32.277Z,99167.96
2019-02-20T02:27:02.473Z,99166.06
2019-02-20T02:29:33.357Z,99162.41
2019-02-20T02:32:03.627Z,99170.37
2019-02-20T02:34:34.514Z,99159.28
2019-02-20T02:37:05.057Z,99161.73
2019-02-20T02:39:36.207Z,99161.03
2019-02-20T02:42:06.471Z,99158.12
2019-02-20T02:44:37.041Z,99155.14
2019-02-20T02:47:07.991Z,99149.52
2019-02-20T02:49:38.610Z,99153.16
2019-02-20T02:52:08.927Z,99154.83
2019-02-20T02:54:39.944Z,99149.21
2019-02-20T02:57:10.131Z,99146.30
2019-02-20T02:59:40.723Z,99145.84
2019-02-20T03:02:11.787Z,99148.16
2019-02-20T03:04:42.159Z,99144.67
2019-02-20T03:07:12.686Z,99148.63
2019-02-20T03:09:43.244Z,99147.81
2019-02-20T03:12:13.441Z,99148.39
2019-02-20T03:14:44.009Z,99149.05
2019-02-20T03:19:36.632Z,99149.77
2019-02-20T03:22:07.509Z,99158.69
2019-02-20T03:24:37.766Z,99158.69
2019-02-20T03:27:08.060Z,99159.58
2019-02-20T03:29:39.185Z,99158.09
2019-02-20T03:32:10.255Z,99168.20
2019-02-20T03:34:40.504Z,99168.20
2019-02-20T03:37:11.099Z,99170.95
2019-02-20T03:39:42.446Z,99167.57
2019-02-20T03:42:13.073Z,99170.64
2019-02-20T03:44:44.009Z,99176.51
2019-02-20T03:47:14.744Z,99171.85
2019-02-20T03:49:45.652Z,99170.25
2019-02-20T03:52:16.213Z,99161.64
2019-02-20T03:54:47.861Z,99167.02
2019-02-20T03:57:18.356Z,99167.52
2019-02-20T03:59:48.964Z,99170.14
2019-02-20T04:02:20.227Z,99171.46
2019-02-20T04:04:50.800Z,99172.35
2019-02-20T04:07:21.647Z,99171.14
2019-02-20T04:09:52.316Z,99169.69
2019-02-20T04:12:23.190Z,99176.73
2019-02-20T04:14:54.773Z,99173.67
2019-02-20T04:17:25.952Z,99178.86
2019-02-20T04:19:56.193Z,99174.84
2019-02-20T04:22:27.082Z,99178.80
2019-02-20T04:24:59.044Z,99181.99
2019-02-20T04:27:29.665Z,99186.12
2019-02-20T04:30:00.428Z,99190.39
2019-02-20T04:32:30.818Z,99192.20
2019-02-20T04:35:01.461Z,99187.86
2019-02-20T04:37:32.104Z,99193.23
2019-02-20T04:40:03.043Z,99191.59
2019-02-20T04:42:33.649Z,99189.28
2019-02-20T04:45:03.942Z,99190.38
2019-02-20T04:47:34.555Z,99187.67
2019-02-20T04:50:05.164Z,99187.31
2019-02-20T04:52:35.802Z,99189.45
2019-02-20T04:55:06.962Z,99193.02
2019-02-20T04:57:37.264Z,99194.33
2019-02-20T05:00:09.750Z,99189.55
2019-02-20T05:02:40.960Z,99187.31
2019-02-20T05:05:11.233Z,99199.59
2019-02-20T05:07:42.131Z,99198.88
2019-02-20T05:10:12.452Z,99199.50
2019-02-20T05:12:42.735Z,99197.80
2019-02-20T05:15:13.719Z,99196.05
2019-02-20T05:17:43.937Z,99202.56
2019-02-20T05:20:14.483Z,99204.87
2019-02-20T05:22:44.810Z,99201.88
2019-02-20T05:25:15.125Z,99204.87
2019-02-20T05:27:46.178Z,99198.39
2019-02-20T05:30:16.806Z,99206.91
2019-02-20T05:32:47.732Z,99205.59
2019-02-20T05:35:18.423Z,99200.53
2019-02-20T05:37:50.031Z,99210.20
2019-02-20T05:40:20.758Z,99207.56
2019-02-20T05:42:51.705Z,99204.48
2019-02-20T05:45:23.910Z,99210.13
2019-02-20T05:47:54.212Z,99206.19
2019-02-20T05:50:24.832Z,99204.48
2019-02-20T05:52:55.871Z,99210.13
2019-02-20T05:55:26.804Z,99208.42
2019-02-20T05:57:57.119Z,99205.33
2019-02-20T06:00:28.075Z,99211.45
2019-02-20T06:02:58.654Z,99208.06
2019-02-20T06:05:28.862Z,99215.16
2019-02-20T06:07:59.767Z,99210.36
2019-02-20T06:10:30.384Z,99216.31
2019-02-20T06:13:00.953Z,99216.67
2019-02-20T06:15:31.538Z,99215.52
2019-02-20T06:18:01.768Z,99214.30
2019-02-20T06:20:32.053Z,99220.48
2019-02-20T06:23:03.753Z,99217.89
2019-02-20T06:25:34.039Z,99226.63
2019-02-20T06:28:04.328Z,99230.94
2019-02-20T06:30:35.308Z,99237.23
2019-02-20T06:33:05.880Z,99242.52
2019-02-20T06:35:36.988Z,99248.77
2019-02-20T06:38:10.533Z,99256.08
2019-02-20T06:40:39.417Z,99257.48
2019-02-20T06:43:10.364Z,99260.06
2019-02-20T06:45:41.391Z,99260.29
2019-02-20T06:48:12.022Z,99265.12
2019-02-20T06:50:42.289Z,99267.23
2019-02-20T06:53:12.984Z,99265.28
2019-02-20T06:55:43.239Z,99264.37
2019-02-20T06:58:13.526Z,99269.99
2019-02-20T07:00:44.254Z,99277.16
2019-02-20T07:03:14.466Z,99278.84
2019-02-20T07:05:52.619Z,99286.20
2019-02-20T07:09:15.262Z,99287.32
2019-02-20T07:12:14.350Z,99288.86
2019-02-20T07:15:10.903Z,99296.38
2019-02-20T07:18:01.411Z,99296.92
2019-02-20T07:20:53.093Z,99299.23
2019-02-20T07:24:01.003Z,99297.38
2019-02-20T07:27:16.479Z,99301.18
2019-02-20T07:30:00.775Z,99307.08
2019-02-20T07:32:31.896Z,99304.11
2019-02-20T07:35:02.203Z,99306.68
2019-02-20T07:37:32.506Z,99313.47
2019-02-20T07:40:03.079Z,99315.48
2019-02-20T07:42:34.932Z,99319.17
2019-02-20T07:45:05.994Z,99314.52
2019-02-20T07:47:37.878Z,99308.61
2019-02-20T07:50:09.503Z,99312.30
2019-02-20T07:52:40.520Z,99319.03
2019-02-20T07:55:13.586Z,99322.13
2019-02-20T07:57:44.251Z,99325.63
2019-02-20T08:00:16.022Z,99320.33
2019-02-20T08:02:46.221Z,99316.38
2019-02-20T08:05:16.476Z,99312.45
2019-02-20T08:07:47.065Z,99308.81
2019-02-20T08:10:17.554Z,99310.50
2019-02-20T08:12:48.982Z,99311.91
2019-02-20T08:15:19.914Z,99305.70
2019-02-20T08:17:50.985Z,99305.28
2019-02-20T08:20:21.893Z,99301.25
2019-02-20T08:22:53.087Z,99307.34
2019-02-20T08:25:24.003Z,99301.54
2019-02-20T08:27:54.772Z,99299.13
2019-02-20T08:30:29.950Z,99301.95
2019-02-20T08:33:00.662Z,99308.22
2019-02-20T08:35:31.216Z,99307.29
2019-02-20T08:38:01.511Z,99302.77
2019-02-20T08:40:32.408Z,99306.14
2019-02-20T08:43:02.976Z,99303.45
2019-02-20T08:45:33.626Z,99301.82
2019-02-20T08:48:03.843Z,99302.31
2019-02-20T08:50:34.819Z,99299.98
2019-02-20T08:53:05.221Z,99291.06
2019-02-20T08:55:36.497Z,99296.62
2019-02-20T08:58:07.282Z,99306.82
2019-02-20T09:00:37.532Z,99298.73
2019-02-20T09:03:08.088Z,99299.76
2019-02-20T09:05:38.507Z,99297.84
2019-02-20T09:08:09.119Z,99300.87
2019-02-20T09:10:40.349Z,99303.81
2019-02-20T09:13:10.996Z,99306.44
2019-02-20T09:15:41.506Z,99305.45
2019-02-20T09:18:12.018Z,99304.62
2019-02-20T09:20:42.403Z,99301.12
2019-02-20T09:23:13.025Z,99305.39
2019-02-20T09:25:44.059Z,99309.75
2019-02-20T09:28:14.686Z,99297.94
2019-02-20T09:30:45.033Z,99299.55
2019-02-20T09:33:16.463Z,99306.00
2019-02-20T09:35:47.398Z,99304.06
2019-02-20T09:38:18.026Z,99305.15
2019-02-20T09:40:48.582Z,99303.55
2019-02-20T09:43:19.604Z,99303.48
2019-02-20T09:45:52.037Z,99306.87
2019-02-20T09:48:23.020Z,99302.28
2019-02-20T09:50:53.659Z,99302.66
2019-02-20T09:53:23.868Z,99302.73
2019-02-20T09:55:57.467Z,99301.11
2019-02-20T09:58:27.957Z,99300.54
2019-02-20T10:00:58.144Z,99303.36
2019-02-20T10:03:28.739Z,99300.64
2019-02-20T10:05:59.040Z,99303.36
2019-02-20T10:08:29.609Z,99312.70
2019-02-20T10:11:00.594Z,99307.60
2019-02-20T10:13:31.451Z,99317.38
2019-02-20T10:16:01.698Z,99315.13
2019-02-20T10:18:32.318Z,99316.95
2019-02-20T10:21:02.533Z,99310.29
2019-02-20T10:23:33.197Z,99311.99
2019-02-20T10:26:03.723Z,99305.23
2019-02-20T10:28:34.345Z,99317.73
2019-02-20T10:31:04.612Z,99316.03
2019-02-20T10:33:34.932Z,99326.67
2019-02-20T10:36:06.000Z,99325.12
2019-02-20T10:38:36.879Z,99327.36
2019-02-20T10:41:07.181Z,99320.95
2019-02-20T10:43:38.068Z,99323.63
2019-02-20T10:46:08.304Z,99329.31
2019-02-20T10:48:39.196Z,99330.37
2019-02-20T10:51:10.137Z,99334.77
2019-02-20T10:53:40.988Z,99338.50
2019-02-20T10:56:12.022Z,99341.77
2019-02-20T10:58:42.739Z,99342.36
2019-02-20T11:01:13.121Z,99336.67
2019-02-20T11:03:43.716Z,99341.56
2019-02-20T11:06:15.109Z,99340.52
2019-02-20T11:08:46.002Z,99345.78
2019-02-20T11:11:16.938Z,99336.83
2019-02-20T11:13:47.881Z,99344.61
2019-02-20T11:16:19.088Z,99341.12
2019-02-20T11:18:50.274Z,99341.91
2019-02-20T11:21:21.517Z,99343.67
2019-02-20T11:23:51.930Z,99341.50
2019-02-20T11:26:22.136Z,99344.52
2019-02-20T11:28:52.807Z,99343.87
2019-02-20T11:31:23.060Z,99337.87
2019-02-20T11:33:53.652Z,99343.66
2019-02-20T11:36:24.254Z,99339.78
2019-02-20T11:38:54.700Z,99341.70
2019-02-20T11:41:25.569Z,99331.03
2019-02-20T11:43:56.792Z,99333.84
2019-02-20T11:46:27.424Z,99337.64
2019-02-20T11:48:58.161Z,99340.88
2019-02-20T11:51:29.010Z,99342.59
2019-02-20T11:53:59.232Z,99341.94
2019-02-20T11:56:29.465Z,99348.62
2019-02-20T11:59:00.090Z,99342.33
2019-02-20T12:01:30.703Z,99332.17
2019-02-20T12:04:00.923Z,99332.13
2019-02-20T12:06:31.564Z,99335.61
2019-02-20T12:09:02.276Z,99326.22
2019-02-20T12:11:34.326Z,99329.69
2019-02-20T12:14:05.376Z,99325.30
2019-02-20T12:16:35.926Z,99323.36
2019-02-20T12:19:10.453Z,99327.31
2019-02-20T12:21:41.395Z,99323.80
2019-02-20T12:24:12.334Z,99319.38
2019-02-20T12:26:42.726Z,99326.70
2019-02-20T12:29:13.306Z,99323.07
2019-02-20T12:31:52.134Z,99321.14
2019-02-20T12:34:16.679Z,99318.71
2019-02-20T12:36:47.947Z,99319.67
2019-02-20T12:39:18.477Z,99321.38
2019-02-20T12:41:48.853Z,99315.02
2019-02-20T12:44:19.508Z,99308.66
2019-02-20T12:46:50.175Z,99312.74
2019-02-20T12:49:20.481Z,99308.48
2019-02-20T12:51:51.324Z,99303.41
2019-02-20T12:54:21.525Z,99312.64
2019-02-20T12:56:53.200Z,99300.05
2019-02-20T12:59:23.740Z,99307.02
2019-02-20T13:01:54.062Z,99310.65
2019-02-20T13:04:24.673Z,99311.11
2019-02-20T13:06:59.417Z,99312.06
2019-02-20T13:09:28.264Z,99306.56
2019-02-20T13:11:59.502Z,99309.06
2019-02-20T13:14:30.757Z,99298.59
2019-02-20T13:17:01.332Z,99304.72
2019-02-20T13:19:32.172Z,99304.36
2019-02-20T13:22:03.216Z,99297.31
2019-02-20T13:24:34.144Z,99301.73
2019-02-20T13:27:08.653Z,99301.53
2019-02-20T13:29:36.846Z,99306.22
2019-02-20T13:32:07.369Z,99304.07
2019-02-20T13:34:37.693Z,99301.04
2019-02-20T13:37:08.355Z,99298.11
2019-02-20T13:39:39.272Z,99300.16
2019-02-20T13:42:11.244Z,99302.23
2019-02-20T13:44:42.285Z,99301.67
2019-02-20T13:47:13.017Z,99293.83
2019-02-20T13:49:44.558Z,99294.80
2019-02-20T13:52:15.295Z,99299.05
2019-02-20T13:54:46.243Z,99293.75
2019-02-20T13:57:17.848Z,99288.95
2019-02-20T13:59:49.463Z,99288.41
2019-02-20T14:02:23.260Z,99292.11
2019-02-20T14:04:53.752Z,99295.63
2019-02-20T14:07:24.318Z,99292.08
2019-02-20T14:09:54.978Z,99298.77
2019-02-20T14:12:25.544Z,99287.69
2019-02-20T14:14:56.425Z,99285.06
2019-02-20T14:17:27.129Z,99286.22
2019-02-20T14:19:57.951Z,99282.95
2019-02-20T14:22:28.475Z,99281.70
2019-02-20T14:24:59.478Z,99281.20
2019-02-20T14:27:30.725Z,99276.94
2019-02-20T14:30:01.239Z,99288.43
2019-02-20T14:32:32.713Z,99276.72
2019-02-20T14:35:03.584Z,99274.48
2019-02-20T14:37:33.888Z,99277.28
2019-02-20T14:40:04.193Z,99278.88
2019-02-20T14:42:36.376Z,99280.28
2019-02-20T14:45:07.775Z,99280.66
2019-02-20T14:47:38.056Z,99281.41
2019-02-20T14:50:09.182Z,99286.06
2019-02-20T14:52:40.403Z,99281.11
2019-02-20T14:55:11.137Z,99290.77
2019-02-20T14:57:41.773Z,99279.64
2019-02-20T15:00:12.776Z,99277.87
2019-02-20T15:02:43.409Z,99285.07
2019-02-20T15:05:14.075Z,99286.72
2019-02-20T15:07:44.605Z,99282.87
2019-02-20T15:10:15.444Z,99290.25
2019-02-20T15:12:46.707Z,99283.75
2019-02-20T15:15:18.977Z,99285.88
2019-02-20T15:17:49.690Z,99293.16
2019-02-20T15:20:20.531Z,99293.70
2019-02-20T15:22:51.267Z,99288.53
2019-02-20T15:25:22.462Z,99287.59
2019-02-20T15:27:53.041Z,99288.02
2019-02-20T15:30:23.350Z,99282.00
2019-02-20T15:32:53.660Z,99282.00
2019-02-20T15:35:24.231Z,99276.41
2019-02-20T15:37:54.932Z,99276.47
2019-02-20T15:40:25.795Z,99273.22
2019-02-20T15:42:56.835Z,99276.84
2019-02-20T15:45:27.452Z,99277.28
2019-02-20T15:47:58.405Z,99274.02
2019-02-20T15:50:29.598Z,99272.92
2019-02-20T15:53:00.336Z,99268.84
2019-02-20T15:55:31.202Z,99275.22
2019-02-20T15:58:02.451Z,99274.40
2019-02-20T16:00:33.020Z,99276.52
2019-02-20T16:03:03.487Z,99276.36
2019-02-20T16:05:34.089Z,99271.66
2019-02-20T16:08:04.314Z,99275.58
2019-02-20T16:10:35.234Z,99280.85
2019-02-20T16:13:06.047Z,99279.22
2019-02-20T16:15:36.994Z,99279.41
2019-02-20T16:18:07.238Z,99280.99
2019-02-20T16:20:37.554Z,99284.06
2019-02-20T16:23:07.806Z,99281.39
2019-02-20T16:25:38.384Z,99275.33
2019-02-20T16:28:08.920Z,99280.73
2019-02-20T16:30:39.764Z,99276.13
2019-02-20T16:33:10.037Z,99280.02
2019-02-20T16:35:40.588Z,99283.29
2019-02-20T16:38:11.308Z,99281.20
2019-02-20T16:40:42.291Z,99283.45
2019-02-20T16:43:13.556Z,99280.45
2019-02-20T16:45:44.468Z,99287.44
2019-02-20T16:48:15.373Z,99283.97
2019-02-20T16:50:45.901Z,99278.23
2019-02-20T16:53:16.107Z,99285.77
2019-02-20T16:55:46.600Z,99287.19
2019-02-20T16:58:17.677Z,99281.22
2019-02-20T17:00:48.631Z,99286.59
2019-02-20T17:03:19.143Z,99287.63
2019-02-20T17:05:49.656Z,99287.63
2019-02-20T17:08:20.481Z,99290.49
2019-02-20T17:10:51.207Z,99290.47
2019-02-20T17:13:21.764Z,99294.49
2019-02-20T17:15:52.357Z,99301.08
2019-02-20T17:18:23.204Z,99295.25
2019-02-20T17:20:53.535Z,99296.84
2019-02-20T17:23:24.466Z,99298.28
2019-02-20T17:25:55.018Z,99308.09
2019-02-20T17:28:25.605Z,99310.61
2019-02-20T17:30:56.272Z,99304.28
2019-02-20T17:33:26.447Z,99317.47
2019-02-20T17:35:57.010Z,99319.59
2019-02-20T17:38:27.645Z,99321.06
2019-02-20T17:40:58.158Z,99323.46
2019-02-20T17:43:28.702Z,99324.55
2019-02-20T17:45:59.424Z,99329.89
2019-02-20T17:48:29.953Z,99336.36
2019-02-20T17:51:00.602Z,99332.56
2019-02-20T17:53:32.150Z,99334.66
2019-02-20T17:56:02.403Z,99331.42
2019-02-20T17:58:33.308Z,99336.75
2019-02-20T18:01:05.698Z,99343.62
2019-02-20T18:03:36.303Z,99340.58
2019-02-20T18:06:06.912Z,99340.84
2019-02-20T18:08:37.787Z,99346.06
2019-02-20T18:11:08.086Z,99353.27
2019-02-20T18:13:39.265Z,99355.51
2019-02-20T18:16:09.493Z,99355.52
2019-02-20T18:18:40.503Z,99363.78
2019-02-20T18:21:11.461Z,99363.67
2019-02-20T18:23:42.098Z,99363.61
2019-02-20T18:26:13.090Z,99363.61
2019-02-20T18:28:43.973Z,99371.97
2019-02-20T18:31:14.605Z,99374.63
2019-02-20T18:33:45.226Z,99376.33
2019-02-20T18:36:15.893Z,99374.30
2019-02-20T18:38:46.225Z,99376.18
2019-02-20T18:41:17.056Z,99378.63
2019-02-20T18:43:47.619Z,99373.67
2019-02-20T18:46:17.769Z,99375.37
2019-02-20T18:48:47.991Z,99379.69
2019-02-20T18:51:18.947Z,99376.87
2019-02-20T18:53:49.232Z,99382.44
2019-02-20T18:56:21.806Z,99381.61
2019-02-20T18:58:53.719Z,99383.30
2019-02-20T19:01:24.499Z,99382.09
2019-02-20T19:03:56.785Z,99386.41
2019-02-20T19:06:27.861Z,99385.97
2019-02-20T19:09:01.837Z,99385.19
2019-02-20T19:12:09.200Z,99394.48
2019-02-20T19:15:20.745Z,99393.58
2019-02-20T19:18:47.550Z,99401.08
2019-02-20T19:21:51.665Z,99403.55
2019-02-20T19:24:56.954Z,99400.99
2019-02-20T19:27:46.980Z,99405.08
2019-02-20T19:31:13.671Z,99409.84
2019-02-20T19:34:06.763Z,99412.98
2019-02-20T19:37:22.463Z,99414.09
2019-02-20T19:40:46.026Z,99415.69
2019-02-20T19:43:50.590Z,99416.39
2019-02-20T19:46:58.792Z,99426.77
2019-02-20T19:50:01.195Z,99423.48
2019-02-20T19:53:00.747Z,99427.00
2019-02-20T19:56:01.418Z,99429.05
2019-02-20T19:59:25.374Z,99428.27
2019-02-20T20:02:40.437Z,99435.03
2019-02-20T20:05:51.943Z,99441.38
2019-02-20T20:08:53.584Z,99441.53
2019-02-20T20:12:08.765Z,99437.07
2019-02-20T20:15:22.622Z,99440.00
2019-02-20T20:18:29.616Z,99448.48
2019-02-20T20:21:50.535Z,99445.88
2019-02-20T20:24:31.654Z,99455.16
2019-02-20T20:27:30.160Z,99459.97
2019-02-20T20:30:38.348Z,99462.30
2019-02-20T20:33:51.414Z,99460.86
2019-02-20T20:37:09.515Z,99461.53
2019-02-20T20:40:27.077Z,99462.83
2019-02-20T20:43:20.376Z,99459.67
2019-02-20T20:46:43.446Z,99457.56
2019-02-20T20:49:35.223Z,99462.06
2019-02-20T20:52:53.068Z,99462.21
2019-02-20T20:56:09.989Z,99461.03
2019-02-20T20:59:23.627Z,99463.27
2019-02-20T21:02:36.161Z,99471.88
2019-02-20T21:06:05.984Z,99480.12
2019-02-20T21:08:43.461Z,99466.73
2019-02-20T21:12:02.059Z,99478.93
2019-02-20T21:14:58.549Z,99484.01
2019-02-20T21:18:18.533Z,99482.57
2019-02-20T21:21:12.162Z,99483.67
2019-02-20T21:24:18.482Z,99484.74
2019-02-20T21:27:17.576Z,99481.81
2019-02-20T21:30:18.061Z,99480.34
2019-02-20T21:33:25.275Z,99483.64
2019-02-20T21:36:00.761Z,99488.03
2019-02-20T21:39:19.810Z,99485.62
2019-02-20T21:42:27.168Z,99486.17
2019-02-20T21:45:06.456Z,99490.89
2019-02-20T21:48:13.205Z,99492.17
2019-02-20T21:50:57.847Z,99493.67
2019-02-20T21:54:08.385Z,99493.46
2019-02-20T21:57:12.149Z,99492.52
2019-02-20T22:00:12.203Z,99500.67
2019-02-20T22:03:05.291Z,99493.05
2019-02-20T22:06:07.570Z,99493.61
2019-02-20T22:09:15.058Z,99499.84
2019-02-20T22:12:32.693Z,99499.80
2019-02-20T22:16:02.152Z,99501.77
2019-02-20T22:19:04.980Z,99504.23
2019-02-20T22:22:13.141Z,99504.87
2019-02-20T22:25:24.568Z,99502.36
2019-02-20T22:28:37.900Z,99510.45
2019-02-20T22:31:54.632Z,99506.79
2019-02-20T22:34:53.275Z,99505.64
2019-02-20T22:38:16.541Z,99507.94
2019-02-20T22:41:02.307Z,99508.10
2019-02-20T22:44:09.720Z,99516.33
2019-02-20T22:46:49.874Z,99513.34
2019-02-20T22:50:04.459Z,99516.91
2019-02-20T22:52:53.471Z,99514.78
2019-02-20T22:55:37.681Z,99506.55
2019-02-20T22:58:34.128Z,99517.54
2019-02-20T23:01:22.170Z,99508.92
2019-02-20T23:04:36.484Z,99508.34
2019-02-20T23:07:31.148Z,99513.33
2019-02-20T23:10:57.584Z,99519.28
2019-02-20T23:14:21.503Z,99519.70
2019-02-20T23:16:52.879Z,99525.27
2019-02-20T23:19:23.593Z,99524.09
2019-02-20T23:21:54.696Z,99528.64
2019-02-20T23:24:25.684Z,99537.30
2019-02-20T23:26:56.309Z,99532.88
2019-02-20T23:29:26.957Z,99533.50
2019-02-20T23:31:57.616Z,99534.43
2019-02-20T23:34:27.948Z,99532.30
2019-02-20T23:36:58.622Z,99532.33
2019-02-20T23:39:29.788Z,99532.09
2019-02-20T23:42:00.393Z,99534.84
2019-02-20T23:44:31.643Z,99537.99
2019-02-20T23:47:02.274Z,99542.53
2019-02-20T23:49:33.320Z,99539.93
2019-02-20T23:52:03.960Z,99541.25
2019-02-20T23:54:34.892Z,99545.28
2019-02-20T23:57:06.151Z,99550.21
2019-02-20T23:59:38.304Z,99546.29
